Time;durP1;ratioP1;P1;durP2;ratioP2;P2;SDS_P1;SDS_P2;PMS_P1;PMS_P2;Temp;Humidity;BMP_temperature;BMP_pressure;BME280_temperature;BME280_humidity;BME280_pressure;Samples;Min_cycle;Max_cycle;Signal;HPM_P1;HPM_P2
2021/12/04 00:01:48;;;;;;;15.37;9.47;;;5.30;99.90;;;;;;5092923;28;20232;-81
2021/12/04 00:04:21;;;;;;;12.57;8.07;;;5.30;99.90;;;;;;5101593;28;20235;-80
2021/12/04 00:06:49;;;;;;;12.60;7.50;;;5.30;99.90;;;;;;5094025;28;20206;-80
2021/12/04 00:09:19;;;;;;;14.07;8.20;;;5.30;99.90;;;;;;5091662;28;20219;-79
2021/12/04 00:12:01;;;;;;;13.37;8.40;;;5.30;99.90;;;;;;5091463;28;20648;-79
2021/12/04 00:14:33;;;;;;;13.63;8.37;;;5.40;99.90;;;;;;5075007;28;20234;-80
2021/12/04 00:17:02;;;;;;;12.90;8.30;;;5.30;99.90;;;;;;5093829;28;20657;-79
2021/12/04 00:19:30;;;;;;;15.27;9.03;;;5.40;99.90;;;;;;5099115;28;20215;-78
2021/12/04 00:21:57;;;;;;;13.33;9.03;;;5.40;99.90;;;;;;5086691;28;20254;-79
2021/12/04 00:24:26;;;;;;;12.97;8.10;;;5.40;99.90;;;;;;5111129;28;20763;-80
2021/12/04 00:26:54;;;;;;;12.73;8.40;;;5.40;99.90;;;;;;5110548;28;20318;-80
2021/12/04 00:29:22;;;;;;;14.53;8.87;;;5.40;99.90;;;;;;5104838;28;20204;-79
2021/12/04 00:31:51;;;;;;;15.13;9.00;;;5.40;99.90;;;;;;5078720;28;20401;-79
2021/12/04 00:34:22;;;;;;;16.60;9.50;;;5.40;99.90;;;;;;5102896;28;20239;-80
2021/12/04 00:50:25;;;;;;;13.13;8.60;;;5.40;99.90;;;;;;5090518;28;20535;-78
2021/12/04 00:52:52;;;;;;;14.80;9.00;;;5.40;99.90;;;;;;5097777;28;20203;-78
2021/12/04 00:55:19;;;;;;;15.50;8.87;;;5.40;99.90;;;;;;5090713;28;20249;-79
2021/12/04 00:57:46;;;;;;;15.97;9.47;;;5.30;99.90;;;;;;5094659;28;20274;-79
2021/12/04 01:00:19;;;;;;;16.00;9.73;;;5.40;99.90;;;;;;5089592;28;20321;-79
2021/12/04 01:02:47;;;;;;;14.77;8.57;;;5.40;99.90;;;;;;5090544;28;20247;-79
2021/12/04 01:05:15;;;;;;;15.47;9.87;;;5.40;99.90;;;;;;5102215;28;20256;-80
2021/12/04 01:07:42;;;;;;;16.33;9.03;;;5.40;99.90;;;;;;5095296;28;20231;-78
2021/12/04 01:10:09;;;;;;;15.43;8.93;;;5.40;99.90;;;;;;5090278;28;20231;-78
2021/12/04 01:12:36;;;;;;;15.50;9.67;;;5.40;99.90;;;;;;5100116;28;20200;-80
2021/12/04 01:15:06;;;;;;;14.40;8.50;;;5.40;99.90;;;;;;5088976;28;20366;-80
2021/12/04 01:17:33;;;;;;;15.27;9.57;;;5.40;99.90;;;;;;5083429;28;20219;-80
2021/12/04 01:20:00;;;;;;;15.70;9.50;;;5.40;99.90;;;;;;5097094;28;20324;-79
2021/12/04 01:22:27;;;;;;;15.70;9.47;;;5.40;99.90;;;;;;5091229;28;20203;-80
2021/12/04 01:24:53;;;;;;;16.50;8.90;;;5.40;99.90;;;;;;5109408;28;20212;-80
2021/12/04 01:27:20;;;;;;;17.53;9.70;;;5.40;99.90;;;;;;5095754;28;20260;-79
2021/12/04 01:29:47;;;;;;;16.17;9.47;;;5.40;99.90;;;;;;5055417;28;20744;-79
2021/12/04 01:32:14;;;;;;;15.77;9.77;;;5.40;99.90;;;;;;5075780;28;20222;-80
2021/12/04 01:34:41;;;;;;;15.47;9.20;;;5.40;99.90;;;;;;5073487;28;20747;-80
2021/12/04 01:37:08;;;;;;;15.33;9.33;;;5.40;99.90;;;;;;5099840;28;20213;-80
2021/12/04 01:39:35;;;;;;;16.23;10.03;;;5.40;99.90;;;;;;5096014;28;20294;-80
2021/12/04 01:42:02;;;;;;;15.83;9.87;;;5.40;99.90;;;;;;5088986;28;20208;-80
2021/12/04 01:44:32;;;;;;;17.17;10.07;;;5.40;99.90;;;;;;5072397;28;20243;-80
2021/12/04 01:47:00;;;;;;;15.47;9.90;;;5.40;99.90;;;;;;5088473;28;20307;-79
2021/12/04 01:49:27;;;;;;;17.23;9.83;;;5.40;99.90;;;;;;5089590;28;20237;-78
2021/12/04 01:51:54;;;;;;;17.37;10.30;;;5.40;99.90;;;;;;5089317;28;20294;-80
2021/12/04 01:54:21;;;;;;;19.13;10.73;;;5.40;99.90;;;;;;5091348;28;20312;-80
2021/12/04 01:56:48;;;;;;;18.70;10.60;;;5.40;99.90;;;;;;5104779;28;20277;-81
2021/12/04 01:59:15;;;;;;;16.13;9.80;;;5.40;99.90;;;;;;5109773;28;20277;-78
2021/12/04 02:01:42;;;;;;;19.70;10.73;;;5.40;99.90;;;;;;5091419;28;20282;-79
2021/12/04 02:04:09;;;;;;;17.23;10.57;;;5.40;99.90;;;;;;5093001;28;20225;-79
2021/12/04 02:06:38;;;;;;;17.83;10.13;;;5.40;99.90;;;;;;5092782;28;20226;-79
2021/12/04 02:09:05;;;;;;;19.63;10.67;;;5.40;99.90;;;;;;5080147;28;20638;-81
2021/12/04 02:11:31;;;;;;;19.50;11.43;;;5.40;99.90;;;;;;5084421;28;20223;-79
2021/12/04 02:13:58;;;;;;;17.70;10.80;;;5.40;99.90;;;;;;5114150;28;20223;-79
2021/12/04 02:16:25;;;;;;;17.57;10.50;;;5.40;99.90;;;;;;5114235;28;20290;-79
2021/12/04 02:18:52;;;;;;;19.20;10.97;;;5.40;99.90;;;;;;5106450;28;20219;-80
2021/12/04 02:21:19;;;;;;;20.23;10.73;;;5.40;99.90;;;;;;5115748;28;20200;-79
2021/12/04 02:23:46;;;;;;;19.67;10.77;;;5.40;99.90;;;;;;5087238;28;20212;-79
2021/12/04 02:26:13;;;;;;;15.97;9.93;;;5.40;99.90;;;;;;5095273;28;20281;-80
2021/12/04 02:28:46;;;;;;;18.60;10.73;;;5.40;99.90;;;;;;5095461;28;20352;-80
2021/12/04 02:31:16;;;;;;;16.53;10.20;;;5.40;99.90;;;;;;5096039;28;20296;-81
2021/12/04 02:33:43;;;;;;;17.33;10.50;;;5.40;99.90;;;;;;5092701;28;20628;-80
2021/12/04 02:36:10;;;;;;;17.10;10.20;;;5.40;99.90;;;;;;5093156;28;20271;-80
2021/12/04 02:38:38;;;;;;;17.73;10.47;;;5.40;99.90;;;;;;5092649;28;20208;-80
2021/12/04 02:41:09;;;;;;;19.40;11.10;;;5.40;99.90;;;;;;5082119;28;20626;-80
2021/12/04 02:43:36;;;;;;;16.30;9.47;;;5.50;99.90;;;;;;5094540;28;20211;-79
2021/12/04 02:46:06;;;;;;;17.57;10.50;;;5.40;99.90;;;;;;5094895;28;20295;-78
2021/12/04 02:48:33;;;;;;;16.97;9.73;;;5.40;99.90;;;;;;5109289;28;20231;-78
2021/12/04 02:50:59;;;;;;;16.53;9.60;;;5.40;99.90;;;;;;5099115;28;20203;-79
2021/12/04 02:53:26;;;;;;;16.50;9.20;;;5.40;99.90;;;;;;5101374;28;20255;-79
2021/12/04 02:55:54;;;;;;;15.93;9.60;;;5.40;99.90;;;;;;5084213;28;20291;-79
2021/12/04 02:58:21;;;;;;;15.97;10.03;;;5.40;99.90;;;;;;5074940;28;20213;-80
2021/12/04 03:00:50;;;;;;;16.50;10.03;;;5.40;99.90;;;;;;5091751;28;20192;-80
2021/12/04 03:03:19;;;;;;;17.53;10.70;;;5.50;99.90;;;;;;5092398;28;20227;-79
2021/12/04 03:05:51;;;;;;;16.33;9.37;;;5.50;99.90;;;;;;5110486;28;20663;-80
2021/12/04 03:08:21;;;;;;;17.90;9.90;;;5.50;99.90;;;;;;5079573;28;20215;-79
2021/12/04 03:10:50;;;;;;;16.10;9.17;;;5.50;99.90;;;;;;5091570;28;20290;-80
2021/12/04 03:13:19;;;;;;;14.90;9.17;;;5.50;99.90;;;;;;5074238;28;20215;-79
2021/12/04 03:15:49;;;;;;;14.37;8.87;;;5.50;99.90;;;;;;5093475;28;20235;-80
2021/12/04 03:18:16;;;;;;;14.53;9.17;;;5.50;99.90;;;;;;5094883;28;20231;-81
2021/12/04 03:20:45;;;;;;;15.23;9.03;;;5.60;99.90;;;;;;5111826;28;20256;-80
2021/12/04 03:23:18;;;;;;;15.80;8.93;;;5.50;99.90;;;;;;5111942;28;20266;-78
2021/12/04 03:25:49;;;;;;;13.90;8.57;;;5.60;99.90;;;;;;5108789;28;20294;-80
2021/12/04 03:28:17;;;;;;;15.50;8.90;;;5.50;99.90;;;;;;5095390;28;20577;-79
2021/12/04 03:31:10;;;;;;;14.97;8.93;;;5.60;99.90;;;;;;5091192;28;20741;-79
2021/12/04 03:41:53;;;;;;;18.10;9.10;;;5.60;99.90;;;;;;5091987;28;20215;-80
2021/12/04 03:44:20;;;;;;;16.00;9.33;;;5.60;99.90;;;;;;5093316;28;20313;-79
2021/12/04 03:46:50;;;;;;;14.97;8.40;;;5.60;99.90;;;;;;5090545;28;20226;-79
2021/12/04 03:49:17;;;;;;;16.40;8.67;;;5.60;99.90;;;;;;5077051;28;20298;-79
2021/12/04 03:51:44;;;;;;;16.10;9.50;;;5.50;99.90;;;;;;5070552;28;20216;-79
2021/12/04 03:54:13;;;;;;;16.83;9.40;;;5.60;99.90;;;;;;5076620;28;20373;-79
2021/12/04 03:56:40;;;;;;;16.90;9.57;;;5.60;99.90;;;;;;5071255;28;20206;-80
2021/12/04 03:59:08;;;;;;;18.27;9.40;;;5.50;99.90;;;;;;5070792;28;20208;-79
2021/12/04 04:01:34;;;;;;;18.47;9.20;;;5.50;99.90;;;;;;5070917;28;20304;-79
2021/12/04 04:04:01;;;;;;;16.93;10.33;;;5.50;99.90;;;;;;5074582;28;20252;-79
2021/12/04 04:06:33;;;;;;;23.07;10.53;;;5.60;99.90;;;;;;5056791;28;20659;-79
2021/12/04 04:09:02;;;;;;;17.83;10.17;;;5.60;99.90;;;;;;5043323;28;20208;-79
2021/12/04 04:11:35;;;;;;;19.90;11.07;;;5.50;99.90;;;;;;5076478;28;20201;-79
2021/12/04 04:14:04;;;;;;;18.30;10.53;;;5.50;99.90;;;;;;5073842;28;20263;-81
2021/12/04 04:16:31;;;;;;;20.67;10.87;;;5.60;99.90;;;;;;5086670;28;20201;-79
2021/12/04 04:18:58;;;;;;;18.97;10.10;;;5.50;99.90;;;;;;5082976;28;20220;-79
2021/12/04 04:21:24;;;;;;;19.17;10.70;;;5.50;99.90;;;;;;5077520;28;20647;-79
2021/12/04 04:23:51;;;;;;;20.70;10.83;;;5.50;99.90;;;;;;5077177;28;20207;-80
2021/12/04 04:26:18;;;;;;;23.00;11.90;;;5.60;99.90;;;;;;5070698;28;20548;-79
2021/12/04 04:28:45;;;;;;;24.20;11.70;;;5.50;99.90;;;;;;5051156;28;20661;-79
2021/12/04 04:31:13;;;;;;;24.77;12.20;;;5.50;99.90;;;;;;5070647;28;20211;-80
2021/12/04 04:33:43;;;;;;;25.27;12.10;;;5.50;99.90;;;;;;5057992;28;20216;-78
2021/12/04 05:00:56;;;;;;;27.33;11.80;;;5.40;99.90;;;;;;5110749;28;20207;-80
2021/12/04 05:11:43;;;;;;;24.50;11.67;;;5.50;99.90;;;;;;5091831;28;20543;-79
2021/12/04 05:14:18;;;;;;;26.17;11.53;;;5.50;99.90;;;;;;5107297;27;20217;-79
2021/12/04 05:16:59;;;;;;;23.67;11.43;;;5.50;99.90;;;;;;5089679;28;20801;-79
2021/12/04 05:19:29;;;;;;;27.30;11.93;;;5.50;99.90;;;;;;5095143;28;20745;-80
2021/12/04 05:21:56;;;;;;;28.13;12.43;;;5.50;99.90;;;;;;5091342;28;20207;-80
2021/12/04 05:24:23;;;;;;;28.63;12.47;;;5.50;99.90;;;;;;5093070;28;20204;-80
2021/12/04 05:26:50;;;;;;;34.53;12.60;;;5.60;99.90;;;;;;5092629;28;20203;-78
2021/12/04 05:29:17;;;;;;;25.10;12.07;;;5.60;99.90;;;;;;5110257;28;20593;-82
2021/12/04 05:31:44;;;;;;;36.27;12.27;;;5.60;99.90;;;;;;5089649;28;20243;-78
2021/12/04 05:34:11;;;;;;;26.87;11.90;;;5.60;99.90;;;;;;5094299;28;20257;-79
2021/12/04 05:36:37;;;;;;;27.93;12.93;;;5.60;99.90;;;;;;5090019;28;20204;-80
2021/12/04 05:39:05;;;;;;;27.90;11.30;;;5.70;99.90;;;;;;5083833;28;20219;-78
2021/12/04 05:41:32;;;;;;;28.50;12.73;;;5.70;99.90;;;;;;5074005;28;20204;-78
2021/12/04 05:44:05;;;;;;;28.50;13.33;;;5.70;99.90;;;;;;5081937;28;20205;-78
2021/12/04 05:46:45;;;;;;;29.67;12.63;;;5.70;99.90;;;;;;5082191;28;20208;-78
2021/12/04 05:49:18;;;;;;;36.00;14.03;;;5.70;99.90;;;;;;5071537;28;20293;-80
2021/12/04 05:57:09;;;;;;;34.63;13.17;;;5.60;99.90;;;;;;5101648;28;20233;-80
2021/12/04 05:59:36;;;;;;;32.73;13.17;;;5.70;99.90;;;;;;5082917;28;20280;-79
2021/12/04 06:02:06;;;;;;;36.73;13.33;;;5.70;99.90;;;;;;5100818;28;20200;-79
2021/12/04 06:04:33;;;;;;;35.03;13.97;;;5.60;99.90;;;;;;5102129;28;20219;-79
2021/12/04 06:07:02;;;;;;;36.23;15.40;;;5.60;99.90;;;;;;5108027;28;20192;-79
2021/12/04 06:09:31;;;;;;;37.73;14.30;;;5.70;99.90;;;;;;5109639;28;20204;-79
2021/12/04 06:12:04;;;;;;;44.13;14.27;;;5.70;99.90;;;;;;5112990;28;20196;-79
2021/12/04 06:14:33;;;;;;;40.37;14.17;;;5.70;99.90;;;;;;5088673;28;20227;-80
2021/12/04 06:17:00;;;;;;;44.67;15.60;;;5.70;99.90;;;;;;5089600;28;20200;-79
2021/12/04 06:22:37;;;;;;;44.73;14.43;;;5.70;99.90;;;;;;5109732;28;20207;-79
2021/12/04 06:24:59;;;;;;;36.63;14.37;;;5.60;99.90;;;;;;5101874;28;20196;-80
2021/12/04 06:27:26;;;;;;;41.37;14.47;;;5.60;99.90;;;;;;5099684;28;20184;-79
2021/12/04 06:29:53;;;;;;;41.00;15.00;;;5.70;99.90;;;;;;5077269;28;20197;-79
2021/12/04 06:32:21;;;;;;;43.90;15.00;;;5.70;99.90;;;;;;5109934;28;20215;-78
2021/12/04 06:34:47;;;;;;;44.67;14.43;;;5.70;99.90;;;;;;5105784;28;20231;-78
2021/12/04 06:37:15;;;;;;;57.60;16.50;;;5.70;99.90;;;;;;5100472;28;20245;-79
2021/12/04 06:39:42;;;;;;;42.67;15.47;;;5.70;99.90;;;;;;5111122;28;20204;-79
2021/12/04 06:42:09;;;;;;;42.90;15.43;;;5.70;99.90;;;;;;5122015;28;20213;-80
2021/12/04 06:44:36;;;;;;;54.83;16.37;;;5.70;99.90;;;;;;5126359;28;20214;-80
2021/12/04 06:47:05;;;;;;;45.87;15.50;;;5.70;99.90;;;;;;5103928;28;20264;-79
2021/12/04 06:49:36;;;;;;;49.13;16.30;;;5.70;99.90;;;;;;5092491;28;20258;-79
2021/12/04 06:52:13;;;;;;;42.80;14.47;;;5.60;99.90;;;;;;5098703;28;20288;-80
2021/12/04 06:54:48;;;;;;;47.97;15.80;;;5.60;99.90;;;;;;5101371;28;20223;-79
2021/12/04 06:57:16;;;;;;;47.80;16.17;;;5.60;99.90;;;;;;5081977;28;20580;-80
2021/12/04 06:59:46;;;;;;;45.40;15.57;;;5.70;99.90;;;;;;5101892;28;20310;-79
2021/12/04 07:02:13;;;;;;;54.13;17.53;;;5.70;99.90;;;;;;5094635;28;20232;-78
2021/12/04 07:04:41;;;;;;;46.13;16.53;;;5.70;99.90;;;;;;5110684;28;20243;-80
2021/12/04 07:07:08;;;;;;;38.50;15.80;;;5.70;99.90;;;;;;5104245;28;20634;-79
2021/12/04 07:09:37;;;;;;;50.47;16.87;;;5.70;99.90;;;;;;5075327;28;20298;-79
2021/12/04 07:12:08;;;;;;;46.43;14.93;;;5.70;99.90;;;;;;5098603;28;20244;-79
2021/12/04 07:14:35;;;;;;;55.23;16.90;;;5.70;99.90;;;;;;5112542;28;20740;-79
2021/12/04 07:17:08;;;;;;;55.10;16.87;;;5.70;99.90;;;;;;5097919;28;20204;-79
2021/12/04 07:19:35;;;;;;;49.63;16.30;;;5.70;99.90;;;;;;5110157;28;20330;-79
2021/12/04 07:22:07;;;;;;;43.77;15.37;;;5.70;99.90;;;;;;5105695;28;20327;-78
2021/12/04 07:24:34;;;;;;;54.83;17.07;;;5.70;99.90;;;;;;5076940;28;20226;-80
2021/12/04 07:27:01;;;;;;;52.73;15.63;;;5.70;99.90;;;;;;5091479;28;20358;-79
2021/12/04 07:29:28;;;;;;;44.83;17.30;;;5.70;99.90;;;;;;5074018;28;20206;-80
2021/12/04 07:31:55;;;;;;;53.50;16.30;;;5.70;99.90;;;;;;5094237;28;20299;-80
2021/12/04 07:34:22;;;;;;;60.87;15.83;;;5.70;99.90;;;;;;5105381;28;20311;-79
2021/12/04 07:36:48;;;;;;;53.07;17.40;;;5.70;99.90;;;;;;5091586;28;20708;-79
2021/12/04 07:39:15;;;;;;;48.67;16.60;;;5.70;99.90;;;;;;5077469;28;20212;-78
2021/12/04 07:41:42;;;;;;;55.37;16.87;;;5.70;99.90;;;;;;5108945;28;20264;-79
2021/12/04 07:44:11;;;;;;;49.00;16.43;;;5.70;99.90;;;;;;5092180;28;20192;-79
2021/12/04 07:46:39;;;;;;;48.73;17.63;;;5.80;99.90;;;;;;5092086;28;20632;-81
2021/12/04 07:49:06;;;;;;;50.80;16.73;;;5.80;99.90;;;;;;5081336;28;20299;-79
2021/12/04 07:51:34;;;;;;;57.73;16.57;;;5.80;99.90;;;;;;5085033;28;20261;-79
2021/12/04 07:54:02;;;;;;;51.43;17.37;;;5.80;99.90;;;;;;5093505;28;20227;-79
2021/12/04 07:56:31;;;;;;;47.23;16.50;;;5.80;99.90;;;;;;5099720;28;20219;-79
2021/12/04 07:58:59;;;;;;;50.73;17.07;;;5.80;99.90;;;;;;5092585;28;20250;-78
2021/12/04 08:01:26;;;;;;;49.73;16.53;;;5.80;99.90;;;;;;5111329;28;20207;-77
2021/12/04 08:03:53;;;;;;;55.30;16.83;;;5.80;99.90;;;;;;5099240;28;20671;-79
2021/12/04 08:06:21;;;;;;;48.40;17.87;;;5.80;99.90;;;;;;5097479;28;20304;-79
2021/12/04 08:08:53;;;;;;;52.23;17.30;;;5.80;99.90;;;;;;5088593;28;20266;-78
2021/12/04 08:11:20;;;;;;;43.90;17.60;;;5.80;99.90;;;;;;5071034;28;20268;-83
2021/12/04 08:13:48;;;;;;;53.63;16.17;;;5.80;99.90;;;;;;5089750;28;20285;-79
2021/12/04 08:16:15;;;;;;;53.00;18.27;;;5.80;99.90;;;;;;5089899;28;20217;-81
2021/12/04 08:18:43;;;;;;;54.70;17.83;;;5.80;99.90;;;;;;5084305;28;20573;-79
2021/12/04 08:21:10;;;;;;;56.07;17.07;;;5.80;99.90;;;;;;5095613;28;20307;-79
2021/12/04 08:23:37;;;;;;;57.17;18.07;;;5.90;99.90;;;;;;5090658;28;20308;-77
2021/12/04 08:26:07;;;;;;;61.70;17.77;;;5.90;99.90;;;;;;5092169;28;20644;-78
2021/12/04 08:28:33;;;;;;;54.27;17.23;;;5.90;99.90;;;;;;5090825;28;20208;-79
2021/12/04 08:31:00;;;;;;;55.30;16.77;;;5.90;99.90;;;;;;5097216;28;20794;-79
2021/12/04 08:33:27;;;;;;;55.53;16.50;;;5.90;99.90;;;;;;5094631;28;20251;-79
2021/12/04 08:35:54;;;;;;;53.10;18.43;;;5.90;99.90;;;;;;5073443;28;20664;-80
2021/12/04 08:38:22;;;;;;;50.63;16.30;;;5.90;99.90;;;;;;5097562;28;20208;-79
2021/12/04 08:40:49;;;;;;;51.03;18.23;;;5.90;99.90;;;;;;5090942;28;20200;-80
2021/12/04 08:43:16;;;;;;;50.03;15.77;;;5.90;99.90;;;;;;5090729;28;20675;-79
2021/12/04 08:45:43;;;;;;;60.47;17.87;;;5.90;99.90;;;;;;5094633;28;20292;-80
2021/12/04 08:48:11;;;;;;;47.83;16.73;;;6.00;99.90;;;;;;5102958;28;20214;-79
2021/12/04 08:50:39;;;;;;;55.33;16.70;;;6.00;99.90;;;;;;5102646;28;20317;-81
2021/12/04 08:53:07;;;;;;;43.03;17.00;;;6.00;99.90;;;;;;5084986;28;20656;-80
2021/12/04 08:55:37;;;;;;;50.27;16.63;;;6.00;99.90;;;;;;5095004;28;20699;-80
2021/12/04 08:58:07;;;;;;;46.93;17.33;;;6.00;99.90;;;;;;5094964;28;20221;-79
2021/12/04 09:00:46;;;;;;;59.23;17.77;;;6.00;99.90;;;;;;5095283;28;20213;-80
2021/12/04 09:03:14;;;;;;;45.70;15.70;;;6.00;99.90;;;;;;5088304;28;20309;-79
2021/12/04 09:05:41;;;;;;;53.40;17.10;;;6.00;99.90;;;;;;5091301;28;20691;-79
2021/12/04 09:08:08;;;;;;;47.23;16.93;;;6.00;99.90;;;;;;5105942;28;20273;-78
2021/12/04 09:10:39;;;;;;;47.33;16.70;;;6.10;99.90;;;;;;5088790;28;20199;-79
2021/12/04 09:13:06;;;;;;;44.37;16.07;;;6.10;99.90;;;;;;5091610;28;20654;-81
2021/12/04 09:15:35;;;;;;;42.00;16.43;;;6.10;99.90;;;;;;5089556;28;20232;-79
2021/12/04 09:18:02;;;;;;;48.87;17.73;;;6.10;99.90;;;;;;5089173;28;20582;-80
2021/12/04 09:20:32;;;;;;;47.93;17.47;;;6.00;99.90;;;;;;5086629;28;20573;-81
2021/12/04 09:23:00;;;;;;;44.03;16.37;;;6.10;99.90;;;;;;5098948;28;20295;-81
2021/12/04 09:25:31;;;;;;;54.13;18.17;;;6.10;99.90;;;;;;5110628;28;20203;-79
2021/12/04 10:01:34;;;;;;;47.83;16.90;;;6.40;99.90;;;;;;5094398;28;20201;-80
2021/12/04 10:03:59;;;;;;;48.23;17.37;;;6.40;99.90;;;;;;5079536;28;20756;-80
2021/12/04 10:22:34;;;;;;;44.43;15.80;;;6.30;99.90;;;;;;5095837;28;20192;-78
2021/12/04 10:33:13;;;;;;;46.13;17.90;;;6.30;99.90;;;;;;5102399;28;20279;-79
2021/12/04 10:35:40;;;;;;;43.23;16.30;;;6.30;99.90;;;;;;5110341;28;20636;-79
2021/12/04 10:38:15;;;;;;;46.83;17.03;;;6.30;99.90;;;;;;5100112;28;20218;-79
2021/12/04 10:40:46;;;;;;;44.00;16.63;;;6.30;99.90;;;;;;5098297;28;20253;-80
2021/12/04 10:43:16;;;;;;;44.67;16.33;;;6.30;99.90;;;;;;5087906;28;20663;-79
2021/12/04 10:45:53;;;;;;;44.53;16.77;;;6.30;99.90;;;;;;5091759;28;20212;-79
2021/12/04 10:48:26;;;;;;;41.33;16.87;;;6.30;99.90;;;;;;5055488;28;20216;-79
2021/12/04 10:53:36;;;;;;;47.33;18.43;;;6.30;99.90;;;;;;5088133;28;20206;-80
2021/12/04 10:56:22;;;;;;;48.70;17.43;;;6.40;99.90;;;;;;5088303;28;20224;-81
2021/12/04 10:59:14;;;;;;;42.80;17.87;;;6.40;99.90;;;;;;5081027;28;20307;-79
2021/12/04 11:04:52;;;;;;;47.37;17.13;;;6.40;99.90;;;;;;5093289;28;20665;-81
2021/12/04 11:24:26;;;;;;;44.03;16.97;;;6.50;99.90;;;;;;5093588;28;20212;-79
2021/12/04 11:38:06;;;;;;;42.10;16.90;;;6.70;99.90;;;;;;5092410;28;20322;-80
2021/12/04 11:43:17;;;;;;;43.23;16.27;;;6.70;99.90;;;;;;5092594;28;20197;-79
2021/12/04 11:48:35;;;;;;;37.13;15.93;;;6.70;99.90;;;;;;5102039;28;20782;-79
2021/12/04 11:51:11;;;;;;;32.73;14.97;;;6.70;99.90;;;;;;5103682;28;20839;-79
2021/12/04 11:53:38;;;;;;;37.77;15.13;;;6.70;99.90;;;;;;5086776;28;20235;-79
2021/12/04 11:56:14;;;;;;;37.00;16.30;;;6.70;99.90;;;;;;5095194;28;20276;-80
2021/12/04 11:58:44;;;;;;;35.47;15.87;;;6.70;99.90;;;;;;5113137;28;20291;-79
2021/12/04 12:01:33;;;;;;;41.80;14.60;;;6.70;99.90;;;;;;5092443;28;20300;-82
2021/12/04 12:04:08;;;;;;;39.97;16.37;;;6.60;99.90;;;;;;5105886;28;20789;-79
2021/12/04 12:06:45;;;;;;;39.50;16.80;;;6.70;99.90;;;;;;5112069;28;20207;-79
2021/12/04 12:09:21;;;;;;;40.10;16.43;;;6.70;99.90;;;;;;5100905;28;20296;-80
2021/12/04 12:12:04;;;;;;;40.17;16.53;;;6.70;99.90;;;;;;5084756;28;20618;-79
2021/12/04 12:14:37;;;;;;;37.43;16.27;;;6.70;99.90;;;;;;5065799;28;20291;-80
2021/12/04 12:17:08;;;;;;;34.73;15.03;;;6.60;99.90;;;;;;5072034;28;21048;-79
2021/12/04 12:19:48;;;;;;;37.60;14.80;;;6.70;99.90;;;;;;5069165;28;20212;-79
2021/12/04 12:22:39;;;;;;;31.40;13.87;;;6.70;99.90;;;;;;5069547;28;20207;-78
2021/12/04 12:26:14;;;;;;;38.97;15.40;;;6.80;99.90;;;;;;5079713;28;20213;-79
2021/12/04 12:36:29;;;;;;;29.10;13.60;;;6.80;99.90;;;;;;5089090;28;20277;-80
2021/12/04 12:39:07;;;;;;;29.93;13.73;;;6.80;99.90;;;;;;5095315;28;20205;-78
2021/12/04 12:41:42;;;;;;;29.07;13.47;;;6.80;99.90;;;;;;5087935;28;20637;-80
2021/12/04 12:44:12;;;;;;;27.33;12.67;;;6.80;99.90;;;;;;5075095;28;20686;-79
2021/12/04 12:46:53;;;;;;;28.73;13.63;;;6.80;99.90;;;;;;5079029;28;20301;-79
2021/12/04 12:49:37;;;;;;;28.57;13.37;;;6.80;99.90;;;;;;5083047;28;20232;-79
2021/12/04 12:52:28;;;;;;;29.73;13.77;;;6.80;99.90;;;;;;5094262;28;20200;-78
2021/12/04 12:55:00;;;;;;;24.87;13.40;;;6.80;99.90;;;;;;5088951;28;20206;-78
2021/12/04 12:57:37;;;;;;;25.20;12.87;;;6.70;99.90;;;;;;5075574;28;20236;-78
2021/12/04 13:12:13;;;;;;;22.43;12.33;;;6.90;99.90;;;;;;5089349;28;20791;-80
2021/12/04 13:14:40;;;;;;;21.83;12.43;;;6.90;99.90;;;;;;5072983;28;20231;-79
2021/12/04 13:17:13;;;;;;;26.20;13.27;;;6.90;99.90;;;;;;5095074;28;20654;-79
2021/12/04 13:19:47;;;;;;;24.03;13.00;;;6.90;99.90;;;;;;5086736;28;20201;-80
2021/12/04 13:22:30;;;;;;;23.63;12.37;;;6.90;99.90;;;;;;5078485;28;20256;-81
2021/12/04 13:25:07;;;;;;;23.13;12.77;;;6.90;99.90;;;;;;5098284;28;20195;-81
2021/12/04 13:30:07;;;;;;;19.03;12.13;;;6.90;99.90;;;;;;5088059;28;20245;-81
2021/12/04 13:32:41;;;;;;;23.33;12.27;;;6.90;99.90;;;;;;5077675;28;20723;-80
2021/12/04 13:35:16;;;;;;;21.80;11.83;;;6.90;99.90;;;;;;5088646;28;20266;-80
2021/12/04 13:37:44;;;;;;;22.27;12.40;;;6.80;99.90;;;;;;5104970;28;20665;-82
2021/12/04 13:40:15;;;;;;;18.90;11.27;;;6.80;99.90;;;;;;5054547;28;20205;-81
2021/12/04 13:42:44;;;;;;;19.93;11.57;;;6.80;99.90;;;;;;5093423;28;20200;-80
2021/12/04 13:45:14;;;;;;;18.40;11.53;;;6.80;99.90;;;;;;5083439;28;20202;-80
2021/12/04 13:47:42;;;;;;;21.67;11.77;;;6.80;99.90;;;;;;5091590;28;20220;-80
2021/12/04 13:52:54;;;;;;;19.07;11.33;;;6.80;99.90;;;;;;5110165;28;20301;-80
2021/12/04 13:55:22;;;;;;;21.30;11.97;;;6.80;99.90;;;;;;5088328;28;20596;-81
2021/12/04 13:57:51;;;;;;;17.13;11.33;;;6.80;99.90;;;;;;5071980;28;20689;-80
2021/12/04 14:00:20;;;;;;;18.73;11.27;;;6.70;99.90;;;;;;5089492;28;20302;-80
2021/12/04 14:02:46;;;;;;;19.97;11.20;;;6.70;99.90;;;;;;5089626;28;20276;-78
2021/12/04 14:05:20;;;;;;;19.07;11.13;;;6.70;99.90;;;;;;5072446;28;20576;-80
2021/12/04 14:07:54;;;;;;;19.53;11.80;;;6.70;99.90;;;;;;5101240;28;20216;-80
2021/12/04 14:10:30;;;;;;;16.30;10.23;;;6.70;99.90;;;;;;5089745;28;20236;-80
2021/12/04 14:12:58;;;;;;;17.83;10.90;;;6.70;99.90;;;;;;5073072;28;20396;-80
2021/12/04 14:15:27;;;;;;;15.57;10.70;;;6.70;99.90;;;;;;5055401;28;20750;-81
2021/12/04 14:18:01;;;;;;;15.70;10.30;;;6.70;99.90;;;;;;5078077;28;20239;-81
2021/12/04 14:20:29;;;;;;;18.27;9.83;;;6.70;99.90;;;;;;5098482;28;20256;-83
2021/12/04 14:22:57;;;;;;;16.33;9.93;;;6.70;99.90;;;;;;5080723;28;20219;-80
2021/12/04 14:25:26;;;;;;;19.30;11.53;;;6.70;99.90;;;;;;5105464;28;20751;-81
2021/12/04 14:27:56;;;;;;;16.37;10.20;;;6.70;99.90;;;;;;5106151;28;20541;-81
2021/12/04 14:30:33;;;;;;;16.67;10.53;;;6.70;99.90;;;;;;5090034;28;20229;-80
2021/12/04 14:33:03;;;;;;;16.17;10.47;;;6.70;99.90;;;;;;5085124;28;20219;-80
2021/12/04 14:35:36;;;;;;;17.83;11.33;;;6.70;99.90;;;;;;5098769;28;20204;-79
2021/12/04 14:38:07;;;;;;;20.67;12.33;;;6.70;99.90;;;;;;5089480;28;20248;-80
2021/12/04 14:40:40;;;;;;;18.57;12.40;;;6.70;99.90;;;;;;5089876;28;20212;-81
2021/12/04 14:43:10;;;;;;;17.50;10.07;;;6.70;99.90;;;;;;5089745;28;20650;-79
2021/12/04 14:45:39;;;;;;;18.00;10.90;;;6.70;99.90;;;;;;5077290;28;20198;-80
2021/12/04 14:48:09;;;;;;;19.90;11.47;;;6.70;99.90;;;;;;5105102;28;20285;-80
2021/12/04 14:50:43;;;;;;;18.63;10.77;;;6.70;99.90;;;;;;5093895;28;20230;-81
2021/12/04 14:53:15;;;;;;;16.67;10.57;;;6.70;99.90;;;;;;5081589;28;20204;-80
2021/12/04 14:55:46;;;;;;;20.17;11.83;;;6.70;99.90;;;;;;5110555;28;20200;-82
2021/12/04 14:58:20;;;;;;;18.40;11.27;;;6.60;99.90;;;;;;5077392;28;20235;-82
2021/12/04 15:00:59;;;;;;;22.53;12.33;;;6.70;99.90;;;;;;5101077;28;20214;-82
2021/12/04 15:03:36;;;;;;;20.53;11.70;;;6.70;99.90;;;;;;5099284;28;20307;-82
2021/12/04 15:06:07;;;;;;;21.00;10.97;;;6.60;99.90;;;;;;5094328;28;20233;-81
2021/12/04 15:08:37;;;;;;;21.73;11.97;;;6.60;99.90;;;;;;5072862;28;20283;-81
2021/12/04 15:11:09;;;;;;;22.83;12.20;;;6.60;99.90;;;;;;5079267;28;20215;-79
2021/12/04 15:13:41;;;;;;;22.93;11.97;;;6.60;99.90;;;;;;5094705;28;20191;-80
2021/12/04 15:16:13;;;;;;;22.87;12.47;;;6.50;99.90;;;;;;5101151;27;20263;-81
2021/12/04 15:18:41;;;;;;;21.60;12.97;;;6.60;99.90;;;;;;5090765;28;20328;-82
2021/12/04 15:21:39;;;;;;;21.83;12.17;;;6.50;99.90;;;;;;5081257;28;20241;-81
2021/12/04 15:24:13;;;;;;;23.60;12.97;;;6.50;99.90;;;;;;5083150;28;20236;-82
2021/12/04 15:26:42;;;;;;;25.07;12.80;;;6.60;99.90;;;;;;5088277;28;20206;-82
2021/12/04 15:29:27;;;;;;;24.53;13.50;;;6.50;99.90;;;;;;5082914;28;20245;-83
2021/12/04 15:31:56;;;;;;;28.03;14.50;;;6.50;99.90;;;;;;5082768;28;20201;-81
2021/12/04 15:34:34;;;;;;;30.37;16.47;;;6.50;99.90;;;;;;5083788;28;20693;-81
2021/12/04 15:37:06;;;;;;;29.80;15.80;;;6.50;99.90;;;;;;5090886;28;20324;-81
2021/12/04 15:39:38;;;;;;;25.80;13.90;;;6.50;99.90;;;;;;5073844;28;20201;-81
2021/12/04 15:42:23;;;;;;;26.17;14.30;;;6.50;99.90;;;;;;5082529;28;20286;-80
2021/12/04 15:45:05;;;;;;;26.13;14.60;;;6.40;99.90;;;;;;5083954;28;20296;-80
2021/12/04 15:50:28;;;;;;;26.37;13.87;;;6.40;99.90;;;;;;5088743;28;20581;-81
2021/12/04 15:55:38;;;;;;;27.03;13.57;;;6.30;99.90;;;;;;5090225;28;20222;-80
2021/12/04 15:58:14;;;;;;;24.73;14.00;;;6.40;99.90;;;;;;5077270;28;20218;-81
2021/12/04 16:00:52;;;;;;;29.17;14.43;;;6.40;99.90;;;;;;5097813;28;20726;-80
2021/12/04 16:03:23;;;;;;;25.60;13.87;;;6.40;99.90;;;;;;5102061;28;20223;-80
2021/12/04 16:05:57;;;;;;;25.50;11.47;;;6.40;99.90;;;;;;5088537;28;20281;-81